Latest Weather Observations for Nowra

IDN60901

Issued at 7:21 am EST Tuesday 23 July 2024 (issued every 10 minutes, with the page automatically refreshed every 10 minutes)

About weather observations | Map of Canberra area stations | Latest observations for Canberra area | Other Formats
Station Details ID: 068072 Name: NOWRA RAN AIR STATION AWS Lat: -34.95 Lon: 150.54 Height: 109.0 m
Data from the previous 72 hours. | See also: Recent months at Nowra
Date/Time
EST
Temp
°C
App
Temp
°C
Dew
Point
°C
Rel
Hum
%
Delta-T
°C
Wind Press
QNH
hPa
Press
MSL
hPa
Rain since
9am
mm
Dir  Spd
km/h
Gust
km/h
Spd
kts
Gust
kts
23/07:00am 8.5 3.4 5.8 83 1.2 WNW 22 26 12 14 1025.7 1025.8 0.0
23/06:30am 8.7 3.5 5.6 81 1.4 NW 22 28 12 15 1025.4 1025.5 0.0
23/06:00am 8.6 3.9 5.9 83 1.2 WNW 20 26 11 14 1025.2 1025.3 0.0
23/05:30am 8.7 3.6 5.8 82 1.3 WNW 22 28 12 15 1024.8 1024.9 0.0
23/05:00am 9.0 4.3 6.1 82 1.3 NW 20 24 11 13 1024.6 1024.7 0.0
23/04:30am 9.1 4.4 6.2 82 1.3 NW 20 26 11 14 1024.5 1024.5 0.0
23/04:00am 9.2 4.5 6.1 81 1.4 NW 20 24 11 13 1024.4 1024.4 0.0
23/03:30am 9.5 4.8 6.0 79 1.6 NW 20 28 11 15 1024.5 1024.5 0.0
23/03:00am 9.4 4.9 5.9 79 1.6 WNW 19 22 10 12 1024.5 1024.5 0.0
23/02:30am 9.5 5.0 5.9 78 1.7 WNW 19 22 10 12 1024.7 1024.8 0.0
23/02:00am 9.8 5.0 5.8 76 1.8 WNW 20 28 11 15 1024.7 1024.8 0.0
23/01:30am 9.8 5.1 6.0 77 1.8 WNW 20 26 11 14 1024.7 1024.8 0.0
23/01:00am 10.0 5.3 6.0 76 1.8 NW 20 24 11 13 1024.6 1024.7 0.0
23/12:30am 9.8 5.3 6.0 77 1.8 NW 19 20 10 11 1024.6 1024.7 0.0
23/12:00am 10.1 5.6 5.9 75 1.9 NW 19 22 10 12 1024.7 1024.8 0.0
 
Date/Time
EST
Temp
°C
App
Temp
°C
Dew
Point
°C
Rel
Hum
%
Delta-T
°C
Wind Press
QNH
hPa
Press
MSL
hPa
Rain since
9am
mm
Dir  Spd
km/h
Gust
km/h
Spd
kts
Gust
kts
22/11:30pm 10.6 5.9 6.0 73 2.1 WNW 20 28 11 15 1024.8 1024.9 0.0
22/11:00pm 10.8 5.7 6.2 73 2.1 NW 22 26 12 14 1024.8 1024.9 0.0
22/10:30pm 10.8 6.1 6.2 73 2.2 NW 20 26 11 14 1024.7 1024.8 0.0
22/10:00pm 11.1 6.4 6.0 71 2.4 NW 20 24 11 13 1024.7 1024.8 0.0
22/09:30pm 11.1 6.6 6.0 71 2.4 NW 19 24 10 13 1024.7 1024.8 0.0
22/09:00pm 11.1 6.5 5.6 69 2.5 NW 19 26 10 14 1024.5 1024.5 0.0
22/08:30pm 11.8 7.6 5.7 66 2.9 NW 17 22 9 12 1024.5 1024.5 0.0
22/08:00pm 12.4 7.5 5.3 62 3.3 NW 20 24 11 13 1024.5 1024.5 0.0
22/07:30pm 12.6 8.7 5.3 61 3.4 WNW 15 24 8 13 1024.4 1024.4 0.0
22/07:00pm 12.6 8.9 4.6 58 3.7 WNW 13 19 7 10 1024.3 1024.3 0.0
22/06:30pm 13.3 9.6 4.5 55 4.1 WNW 13 19 7 10 1024.2 1024.2 0.0
22/06:00pm 13.9 9.7 3.9 51 4.6 WNW 15 20 8 11 1023.6 1023.6 0.0
22/05:30pm 14.5 9.6 3.9 49 4.9 NW 19 32 10 17 1023.5 1023.5 0.0
22/05:00pm 14.8 9.7 3.3 46 5.2 WNW 19 24 10 13 1023.4 1023.4 0.0
22/04:30pm 16.1 10.8 2.9 41 6.0 WNW 20 28 11 15 1023.3 1023.3 0.0
22/04:00pm 16.9 11.4 3.9 42 6.1 WNW 22 33 12 18 1023.1 1023.1 0.0
22/03:30pm 17.5 11.7 4.5 42 6.2 WNW 24 35 13 19 1023.0 1023.0 0.0
22/03:00pm 17.8 11.3 4.7 42 6.3 WNW 28 39 15 21 1022.8 1022.8 0.0
22/02:30pm 18.1 12.6 6.0 45 6.0 W 24 37 13 20 1022.8 1022.8 0.0
22/02:00pm 18.4 12.9 5.9 44 6.1 WNW 24 33 13 18 1022.9 1022.9 0.0
22/01:30pm 18.1 11.8 5.7 44 6.1 W 28 33 15 18 1023.1 1023.1 0.0
22/01:00pm 17.9 11.8 6.4 47 5.7 W 28 35 15 19 1023.4 1023.4 0.0
22/12:30pm 17.5 11.4 6.4 48 5.5 WNW 28 41 15 22 1023.7 1023.7 0.0
22/12:00pm 16.9 12.1 7.3 53 4.8 NW 22 32 12 17 1024.1 1024.1 0.0
22/11:30am 16.5 10.6 7.4 55 4.6 NW 28 35 15 19 1024.5 1024.5 0.0
22/11:00am 15.3 10.6 7.6 60 3.8 NW 22 32 12 17 1024.8 1024.9 0.0
22/10:30am 14.1 9.7 7.6 65 3.2 NW 20 30 11 16 1025.0 1025.1 0.0
22/10:00am 13.7 9.3 7.5 66 3.0 NW 20 28 11 15 1024.9 1025.0 0.0
22/09:30am 13.4 9.0 7.2 66 3.0 NW 20 26 11 14 1024.9 1025.0 0.0
22/09:00am 12.4 7.2 7.1 70 2.6 NW 24 30 13 16 1024.7 1024.8 0.0
22/08:30am 11.8 6.9 6.9 72 2.4 NW 22 30 12 16 1024.3 1024.3 0.0
22/08:00am 11.4 6.8 6.5 72 2.3 NW 20 26 11 14 1024.1 1024.1 0.0
22/07:30am 10.7 6.0 6.1 73 2.2 NW 20 26 11 14 1023.8 1023.8 0.0
22/07:00am 10.2 5.7 6.0 75 1.9 NW 19 24 10 13 1023.6 1023.6 0.0
22/06:30am 10.0 5.2 5.8 75 1.9 NW 20 28 11 15 1023.4 1023.4 0.0
22/06:00am 10.1 5.3 5.7 74 2.0 WNW 20 26 11 14 1023.1 1023.1 0.0
22/05:30am 10.0 5.2 5.6 74 2.0 NW 20 28 11 15 1022.6 1022.7 0.0
22/05:00am 10.2 5.0 5.6 73 2.1 NW 22 28 12 15 1022.3 1022.4 0.0
22/04:30am 10.1 4.9 5.5 73 2.1 NW 22 30 12 16 1022.3 1022.4 0.0
22/04:00am 10.4 4.8 5.6 72 2.2 WNW 24 32 13 17 1022.2 1022.3 0.0
22/03:30am 10.4 4.4 5.4 71 2.3 WNW 26 35 14 19 1022.1 1022.2 0.0
22/03:00am 10.0 4.4 5.4 73 2.1 WNW 24 30 13 16 1022.2 1022.3 0.0
22/02:30am 9.8 4.2 5.2 73 2.1 WNW 24 30 13 16 1022.2 1022.3 0.0
22/02:00am 9.8 4.2 5.2 73 2.1 WNW 24 32 13 17 1022.2 1022.3 0.0
22/01:30am 9.3 4.4 5.1 75 1.9 NW 20 26 11 14 1022.3 1022.4 0.0
22/01:00am 9.5 4.7 4.9 73 2.1 WNW 19 24 10 13 1022.4 1022.5 0.0
22/12:30am 9.6 4.6 4.8 72 2.2 WNW 20 24 11 13 1022.4 1022.5 0.0
22/12:00am 9.6 5.2 4.6 71 2.2 WNW 17 22 9 12 1022.5 1022.6 0.0
 
Date/Time
EST
Temp
°C
App
Temp
°C
Dew
Point
°C
Rel
Hum
%
Delta-T
°C
Wind Press
QNH
hPa
Press
MSL
hPa
Rain since
9am
mm
Dir  Spd
km/h
Gust
km/h
Spd
kts
Gust
kts
21/11:30pm 9.5 5.4 4.5 71 2.2 NW 15 19 8 10 1022.8 1022.8 0.0
21/11:00pm 10.0 4.6 4.4 68 2.5 NW 22 30 12 16 1022.6 1022.7 0.0
21/10:30pm 10.0 4.9 4.2 67 2.6 WNW 20 28 11 15 1022.6 1022.7 0.0
21/10:00pm 10.5 4.6 4.0 64 2.9 WNW 24 33 13 18 1022.4 1022.5 0.0
21/09:30pm 10.5 5.4 4.0 64 2.9 NW 20 30 11 16 1022.1 1022.2 0.0
21/09:00pm 10.1 5.5 3.8 65 2.8 NW 17 22 9 12 1021.9 1022.0 0.0
21/08:30pm 10.5 5.9 3.8 63 3.0 NW 17 20 9 11 1021.7 1021.8 0.0
21/08:00pm 10.9 6.0 3.9 62 3.1 NW 19 28 10 15 1021.3 1021.4 0.0
21/07:30pm 10.8 5.8 3.8 62 3.1 NW 19 22 10 12 1021.1 1021.2 0.0
21/07:00pm 11.2 6.0 3.7 60 3.3 NW 20 28 11 15 1020.8 1020.9 0.0
21/06:30pm 11.5 6.4 4.0 60 3.4 NW 20 28 11 15 1020.3 1020.4 0.0
21/06:00pm 11.9 6.4 3.9 58 3.6 NW 22 32 12 17 1019.9 1020.0 0.0
21/05:30pm 12.0 6.8 3.8 57 3.7 NW 20 28 11 15 1019.4 1019.5 0.0
21/05:00pm 12.6 7.4 3.3 53 4.1 WNW 20 28 11 15 1018.9 1019.0 0.0
21/04:30pm 13.7 7.6 2.9 48 4.8 WNW 24 33 13 18 1018.3 1018.4 0.0
21/04:00pm 14.6 7.7 2.5 44 5.4 W 28 43 15 23 1017.8 1017.9 0.0
21/03:30pm 15.1 7.5 2.6 43 5.6 W 32 43 17 23 1017.4 1017.5 0.0
21/03:00pm 15.6 8.7 2.4 41 5.9 W 28 35 15 19 1017.2 1017.3 0.0
21/02:30pm 16.2 9.7 2.9 41 6.1 WNW 26 39 14 21 1016.8 1016.9 0.0
21/02:00pm 16.2 9.3 2.6 40 6.2 WNW 28 37 15 20 1016.3 1016.3 0.0
21/01:30pm 16.5 10.7 2.2 38 6.4 W 22 32 12 17 1016.2 1016.2 0.0
21/01:00pm 16.2 10.4 2.2 39 6.3 W 22 35 12 19 1016.0 1016.0 0.0
21/12:30pm 16.0 9.1 2.8 41 6.0 W 28 39 15 21 1016.0 1016.0 0.0
21/12:00pm 15.5 8.7 3.0 43 5.7 W 28 35 15 19 1016.0 1016.0 0.0
21/11:30am 15.1 8.6 2.6 43 5.6 WNW 26 39 14 21 1016.1 1016.1 0.0
21/11:00am 14.7 7.8 2.6 44 5.4 WNW 28 37 15 20 1016.2 1016.2 0.0
21/10:30am 14.0 7.1 2.3 45 5.2 W 28 39 15 21 1016.4 1016.4 0.0
21/10:00am 13.3 5.7 2.8 49 4.7 W 32 46 17 25 1016.4 1016.4 0.0
21/09:50am 13.1 5.9 3.2 51 4.4 WNW 30 48 16 26 1016.2 1016.2 0.0
21/09:30am 12.5 4.9 2.9 52 4.2 WNW 32 46 17 25 1015.7 1015.7 0.0
21/09:00am 11.9 5.1 2.9 54 4.0 WNW 28 37 15 20 1015.4 1015.4 0.0
21/08:30am 11.3 6.0 2.9 56 3.7 WNW 20 30 11 16 1014.9 1014.9 0.0
21/08:00am 10.5 4.4 2.6 58 3.4 WNW 24 32 13 17 1014.5 1014.5 0.0
21/07:30am 10.0 2.4 2.6 60 3.2 WNW 32 44 17 24 1014.0 1014.0 0.0
21/07:00am 9.9 2.1 2.7 61 3.1 WNW 33 46 18 25 1013.5 1013.5 0.0
21/06:30am 10.0 2.4 2.6 60 3.2 WNW 32 43 17 23 1013.0 1013.0 0.0
21/06:00am 10.2 2.6 2.6 59 3.3 WNW 32 41 17 22 1012.1 1012.2 0.0
21/05:30am 10.2 2.6 2.6 59 3.3 WNW 32 43 17 23 1011.6 1011.7 0.0
21/05:00am 10.4 2.8 2.7 59 3.3 WNW 32 46 17 25 1010.9 1011.0 0.0
21/04:40am 10.6 3.4 2.9 59 3.3 WNW 30 48 16 26 1010.5 1010.6 0.0
21/04:30am 10.5 4.4 2.8 59 3.3 WNW 24 33 13 18 1010.2 1010.3 0.0
21/04:19am 10.5 3.6 2.8 59 3.3 WNW 28 46 15 25 1009.8 1009.9 0.0
21/04:00am 10.6 2.8 2.9 59 3.4 WNW 33 46 18 25 1009.6 1009.7 0.0
21/03:41am 10.6 2.1 2.9 59 3.3 WNW 37 56 20 30 1009.4 1009.5 0.0
21/03:30am 10.5 2.0 3.1 60 3.2 WNW 37 54 20 29 1009.3 1009.4 0.0
21/03:06am 10.7 2.6 3.3 60 3.2 WNW 35 54 19 29 1009.0 1009.1 0.0
21/03:00am 10.7 2.2 3.3 60 3.3 WNW 37 54 20 29 1008.9 1009.0 0.0
21/02:30am 10.9 3.4 3.5 60 3.3 WNW 32 50 17 27 1008.9 1009.0 0.0
21/02:02am 11.1 2.6 3.4 59 3.4 WNW 37 56 20 30 1008.4 1008.4 0.0
21/02:00am 11.0 2.5 3.3 59 3.4 WNW 37 54 20 29 1008.4 1008.4 0.0
21/01:30am 11.3 1.7 3.3 58 3.5 WNW 43 61 23 33 1008.5 1008.5 0.0
21/01:00am 11.6 1.1 3.4 57 3.6 W 48 67 26 36 1008.4 1008.4 0.0
21/12:30am 11.7 2.2 3.7 58 3.6 W 43 54 23 29 1007.9 1007.9 0.0
21/12:00am 11.9 2.4 3.9 58 3.6 W 43 61 23 33 1007.8 1007.8 0.0
 
Date/Time
EST
Temp
°C
App
Temp
°C
Dew
Point
°C
Rel
Hum
%
Delta-T
°C
Wind Press
QNH
hPa
Press
MSL
hPa
Rain since
9am
mm
Dir  Spd
km/h
Gust
km/h
Spd
kts
Gust
kts
20/11:35pm 12.0 4.0 4.0 58 3.6 W 35 69 19 37 1007.8 1007.8 0.0
20/11:30pm 12.1 4.1 3.9 57 3.7 W 35 52 19 28 1007.7 1007.7 0.0
20/11:00pm 12.3 3.6 4.3 58 3.7 WNW 39 59 21 32 1007.9 1007.9 0.0
20/10:30pm 12.5 4.3 4.5 58 3.7 WNW 37 59 20 32 1007.5 1007.5 0.0
20/10:00pm 12.3 3.7 4.5 59 3.6 WNW 39 61 21 33 1007.4 1007.4 0.0
20/09:31pm 12.4 4.2 4.6 59 3.6 WNW 37 59 20 32 1006.7 1006.7 0.0
20/09:30pm 12.3 4.4 4.5 59 3.6 WNW 35 50 19 27 1006.6 1006.6 0.0
20/09:00pm 12.1 3.1 4.6 60 3.4 WNW 41 61 22 33 1005.9 1005.9 0.0
20/08:30pm 11.7 3.1 4.4 61 3.3 WNW 39 63 21 34 1005.3 1005.3 0.0
20/08:03pm 11.7 3.8 4.2 60 3.4 WNW 35 54 19 29 1005.1 1005.1 0.0
20/08:00pm 11.5 3.5 4.0 60 3.4 WNW 35 48 19 26 1005.2 1005.2 0.0
20/07:30pm 11.6 1.9 3.9 59 3.5 WNW 44 74 24 40 1004.9 1004.9 0.0
20/07:00pm 11.5 2.3 3.5 58 3.6 WNW 41 59 22 32 1004.4 1004.4 0.0
20/06:30pm 11.5 1.7 3.3 57 3.6 WNW 44 76 24 41 1004.1 1004.1 0.0
20/06:00pm 10.9 1.6 3.0 58 3.5 WNW 41 74 22 40 1003.4 1003.4 0.0
20/05:30pm 10.7 1.7 2.3 56 3.6 WNW 39 57 21 31 1002.9 1002.9 0.0
20/05:00pm 10.4 2.0 1.8 55 3.7 WNW 35 57 19 31 1002.6 1002.7 0.0
20/04:40pm 10.6 3.1 1.4 53 3.9 WNW 30 54 16 29 1003.1 1003.1 0.0
20/04:30pm 10.6 3.6 1.9 55 3.7 WNW 28 44 15 24 1002.4 1002.5 0.0
20/04:00pm 10.9 0.4 1.7 53 3.9 WNW 46 72 25 39 1001.0 1001.1 0.0
20/03:30pm 11.3 -0.6 2.3 54 3.9 WNW 54 78 29 42 1000.3 1000.3 0.0
20/03:00pm 12.3 0.0 1.9 49 4.5 WNW 56 82 30 44 999.5 999.5 0.0
20/02:30pm 13.3 2.1 1.6 45 5.1 WNW 50 96 27 52 999.7 999.7 0.0
20/02:00pm 13.1 1.1 1.5 45 5.0 WNW 54 82 29 44 999.9 999.9 0.0
20/01:30pm 13.1 1.7 0.8 43 5.2 WNW 50 76 27 41 999.5 999.5 0.0
20/01:00pm 13.3 0.9 1.3 44 5.2 WNW 56 80 30 43 1000.6 1000.7 0.0
20/12:30pm 13.2 0.8 1.5 45 5.0 WNW 56 80 30 43 1000.6 1000.7 0.0
20/12:00pm 13.8 2.5 1.1 42 5.5 W 50 82 27 44 1000.6 1000.7 0.0
20/11:30am 14.0 3.1 1.6 43 5.4 WNW 48 74 26 40 1000.5 1000.6 0.0
20/11:00am 14.5 4.6 1.8 42 5.6 WNW 43 69 23 37 1000.4 1000.4 0.0
20/10:30am 13.8 2.7 2.7 47 4.9 WNW 50 74 27 40 1000.8 1000.9 0.0
20/10:00am 13.4 1.2 2.9 49 4.7 WNW 56 83 30 45 1000.7 1000.8 0.0
20/09:30am 13.9 3.9 4.2 52 4.5 WNW 46 69 25 37 1000.6 1000.7 0.0
20/09:00am 13.8 4.4 4.7 54 4.3 NW 43 67 23 36 1000.3 1000.3 0.0
20/08:45am 13.7 4.7 4.3 53 4.3 NW 41 76 22 41 1000.1 1000.1 0.0
20/08:30am 13.5 5.2 4.4 54 4.2 WNW 37 57 20 31 1000.0 1000.0 0.0
20/08:07am 13.0 5.8 4.9 58 3.8 NW 32 72 17 39 1000.6 1000.7 0.0
20/08:00am 12.7 5.5 5.1 60 3.6 NW 32 50 17 27 1000.6 1000.7 0.0
20/07:48am 12.3 5.6 5.5 63 3.2 NW 30 48 16 26 1000.6 1000.7 0.0
20/07:30am 11.5 4.3 5.8 68 2.7 NW 33 46 18 25 1000.7 1000.8 0.0

Latest Capital City Observations: Canberra | Sydney | Melbourne | Brisbane | Adelaide | Perth | Hobart | Darwin

Other formats

Comma delimited format used in spreadsheet applications
http://www.bom.gov.au/fwo/IDN60903/IDN60903.94750.axf

JavaScript Object Notation format (JSON) in row-major order
http://www.bom.gov.au/fwo/IDN60903/IDN60903.94750.json

Data quality

Most of these data are generated automatically and are frequently updated. Quality checks on data are not normally performed. It is possible for incorrect values to appear. Refer to information at About Latest Weather Observations and please check the disclaimer before using these data.